createdAt,value
2023-05-10T00:00:05.645Z,0.10
2023-05-10T00:02:39.782Z,0.30
2023-05-10T00:05:06.701Z,0.20
2023-05-10T00:07:33.403Z,0.20
2023-05-10T00:09:59.778Z,0.17
2023-05-10T00:12:26.201Z,0.13
2023-05-10T00:14:52.541Z,0.40
2023-05-10T00:17:19.103Z,0.15
2023-05-10T00:19:45.524Z,0.10
2023-05-10T00:22:11.826Z,0.20
2023-05-10T00:24:38.144Z,0.10
2023-05-10T00:27:04.893Z,0.15
2023-05-10T00:29:31.353Z,0.17
2023-05-10T00:31:57.760Z,0.10
2023-05-10T00:34:24.170Z,0.10
2023-05-10T00:36:50.542Z,0.10
2023-05-10T00:39:16.897Z,0.30
2023-05-10T00:41:43.224Z,0.10
2023-05-10T00:44:09.939Z,0.10
2023-05-10T00:46:37.016Z,0.10
2023-05-10T00:49:03.472Z,0.20
2023-05-10T00:51:30.009Z,0.20
2023-05-10T00:53:56.928Z,0.10
2023-05-10T00:56:24.082Z,0.30
2023-05-10T00:58:50.780Z,0.20
2023-05-10T01:01:17.372Z,0.20
2023-05-10T01:03:44.451Z,0.25
2023-05-10T01:06:11.113Z,0.10
2023-05-10T01:08:37.808Z,0.10
2023-05-10T01:11:04.149Z,0.25
2023-05-10T01:13:38.213Z,0.50
2023-05-10T01:16:05.794Z,0.20
2023-05-10T01:18:34.383Z,0.30
2023-05-10T01:21:54.742Z,0.20
2023-05-10T01:24:41.283Z,0.20
2023-05-10T01:27:16.788Z,0.30
2023-05-10T01:33:11.850Z,0.40
2023-05-10T01:35:47.712Z,0.13
2023-05-10T01:38:19.582Z,0.45
2023-05-10T01:41:00.503Z,0.20
2023-05-10T01:43:41.730Z,0.30
2023-05-10T01:46:18.525Z,0.20
2023-05-10T01:48:52.355Z,0.30
2023-05-10T01:51:24.557Z,0.20
2023-05-10T01:53:55.073Z,0.70
2023-05-10T01:56:27.151Z,0.28
2023-05-10T01:58:55.534Z,0.50
2023-05-10T02:01:22.872Z,0.40
2023-05-10T02:03:52.865Z,0.15
2023-05-10T02:06:21.823Z,0.17
2023-05-10T02:08:51.494Z,0.60
2023-05-10T02:11:19.280Z,0.20
2023-05-10T02:13:48.207Z,0.20
2023-05-10T02:16:16.920Z,0.30
2023-05-10T02:18:43.577Z,0.30
2023-05-10T02:21:11.699Z,0.30
2023-05-10T02:23:39.963Z,0.10
2023-05-10T02:26:07.348Z,0.25
2023-05-10T02:28:36.480Z,0.30
2023-05-10T02:31:03.484Z,0.40
2023-05-10T02:33:31.891Z,0.40
2023-05-10T02:35:59.166Z,1.30
2023-05-10T02:38:26.743Z,0.30
2023-05-10T02:40:54.662Z,0.40
2023-05-10T02:43:24.271Z,0.47
2023-05-10T02:45:50.745Z,0.38
2023-05-10T02:48:17.809Z,0.50
2023-05-10T02:50:46.212Z,0.80
2023-05-10T02:53:18.289Z,0.73
2023-05-10T02:55:50.011Z,0.70
2023-05-10T02:58:16.567Z,0.40
2023-05-10T03:00:42.887Z,0.43
2023-05-10T03:03:09.277Z,0.32
2023-05-10T03:05:35.709Z,0.50
2023-05-10T03:08:05.133Z,0.38
2023-05-10T03:10:34.733Z,0.50
2023-05-10T03:13:39.184Z,0.50
2023-05-10T03:16:13.219Z,0.40
2023-05-10T03:18:55.775Z,0.50
2023-05-10T03:21:26.662Z,0.60
2023-05-10T03:24:07.913Z,0.63
2023-05-10T03:26:37.878Z,0.43
2023-05-10T03:29:09.913Z,0.57
2023-05-10T03:31:36.499Z,0.60
2023-05-10T03:34:03.299Z,0.57
2023-05-10T03:36:29.750Z,0.70
2023-05-10T03:38:56.104Z,0.40
2023-05-10T03:41:22.598Z,0.47
2023-05-10T03:43:48.936Z,0.47
2023-05-10T03:46:15.326Z,1.15
2023-05-10T03:48:41.767Z,0.60
2023-05-10T03:51:08.118Z,0.45
2023-05-10T03:53:34.530Z,0.70
2023-05-10T03:56:01.162Z,0.50
2023-05-10T03:58:27.607Z,0.60
2023-05-10T04:00:54.524Z,0.60
2023-05-10T04:03:21.270Z,0.50
2023-05-10T04:05:47.722Z,0.93
2023-05-10T04:08:14.023Z,1.08
2023-05-10T04:10:40.627Z,0.70
2023-05-10T04:13:07.229Z,0.90
2023-05-10T04:15:33.588Z,1.05
2023-05-10T04:18:01.109Z,0.80
2023-05-10T04:20:27.438Z,0.98
2023-05-10T04:22:53.737Z,0.80
2023-05-10T04:25:21.260Z,0.55
2023-05-10T04:27:47.652Z,0.65
2023-05-10T04:30:14.134Z,0.98
2023-05-10T04:32:40.594Z,0.60
2023-05-10T04:35:07.248Z,0.80
2023-05-10T04:37:33.571Z,1.10
2023-05-10T04:40:00.879Z,1.00
2023-05-10T04:42:27.237Z,0.70
2023-05-10T04:44:53.839Z,0.90
2023-05-10T04:47:20.234Z,0.95
2023-05-10T04:49:46.763Z,1.10
2023-05-10T04:52:13.191Z,0.98
2023-05-10T04:54:39.622Z,1.40
2023-05-10T04:57:05.937Z,1.35
2023-05-10T04:59:32.266Z,1.30
2023-05-10T05:01:59.220Z,1.50
2023-05-10T05:04:25.899Z,1.42
2023-05-10T05:06:53.900Z,1.00
2023-05-10T05:09:20.703Z,1.50
2023-05-10T05:11:47.043Z,0.82
2023-05-10T05:14:13.369Z,1.10
2023-05-10T05:16:39.722Z,1.15
2023-05-10T05:19:06.296Z,1.00
2023-05-10T05:21:33.530Z,0.93
2023-05-10T05:23:59.959Z,0.98
2023-05-10T05:26:27.303Z,1.13
2023-05-10T05:28:55.347Z,1.52
2023-05-10T05:31:21.905Z,1.10
2023-05-10T05:33:48.245Z,1.23
2023-05-10T05:36:14.550Z,1.30
2023-05-10T05:38:41.069Z,2.40
2023-05-10T05:41:07.397Z,1.73
2023-05-10T05:43:35.496Z,1.88
2023-05-10T05:46:03.109Z,1.73
2023-05-10T05:48:30.764Z,1.70
2023-05-10T05:50:57.831Z,2.00
2023-05-10T05:53:24.684Z,2.17
2023-05-10T05:55:55.060Z,2.42
2023-05-10T05:58:22.526Z,2.38
2023-05-10T06:00:49.272Z,2.15
2023-05-10T06:03:15.742Z,2.42
2023-05-10T06:05:42.309Z,2.47
2023-05-10T06:08:08.709Z,1.70
2023-05-10T06:10:35.124Z,1.40
2023-05-10T06:13:01.557Z,2.35
2023-05-10T06:15:28.112Z,1.95
2023-05-10T06:17:54.557Z,2.15
2023-05-10T06:20:20.888Z,1.92
2023-05-10T06:22:47.271Z,2.22
2023-05-10T06:25:15.217Z,2.20
2023-05-10T06:27:41.629Z,2.72
2023-05-10T06:30:13.407Z,2.22
2023-05-10T06:32:40.296Z,2.67
2023-05-10T06:35:07.314Z,2.25
2023-05-10T06:37:33.621Z,2.08
2023-05-10T06:40:00.025Z,2.38
2023-05-10T06:42:26.425Z,2.00
2023-05-10T06:44:52.863Z,2.45
2023-05-10T06:47:19.450Z,1.40
2023-05-10T06:49:45.861Z,2.47
2023-05-10T06:52:12.275Z,2.42
2023-05-10T06:54:38.725Z,3.17
2023-05-10T06:57:10.812Z,2.45
2023-05-10T06:59:42.697Z,1.83
2023-05-10T07:02:09.122Z,2.10
2023-05-10T07:04:35.516Z,2.58
2023-05-10T07:07:01.935Z,2.00
2023-05-10T07:09:29.025Z,1.95
2023-05-10T07:11:55.709Z,1.80
2023-05-10T07:14:22.026Z,1.75
2023-05-10T07:16:48.355Z,2.40
2023-05-10T07:19:15.081Z,2.50
2023-05-10T07:21:43.534Z,2.17
2023-05-10T07:24:10.206Z,2.25
2023-05-10T07:26:36.655Z,1.98
2023-05-10T07:29:03.420Z,2.63
2023-05-10T07:31:29.772Z,2.40
2023-05-10T07:33:56.137Z,1.90
2023-05-10T07:36:22.516Z,1.55
2023-05-10T07:38:50.319Z,1.92
2023-05-10T07:41:16.665Z,1.55
2023-05-10T07:43:42.998Z,1.88
2023-05-10T07:46:10.967Z,1.88
2023-05-10T07:48:37.961Z,1.92
2023-05-10T07:51:04.308Z,1.52
2023-05-10T07:53:30.664Z,1.83
2023-05-10T07:55:59.973Z,2.22
2023-05-10T07:58:26.690Z,1.73
2023-05-10T08:00:53.115Z,1.80
2023-05-10T08:03:19.569Z,2.55
2023-05-10T08:05:46.103Z,1.65
2023-05-10T08:08:12.763Z,2.10
2023-05-10T08:10:39.183Z,2.20
2023-05-10T08:13:05.533Z,2.08
2023-05-10T08:15:31.940Z,1.70
2023-05-10T08:17:58.311Z,2.22
2023-05-10T08:20:24.673Z,2.13
2023-05-10T08:22:51.903Z,2.10
2023-05-10T08:25:18.516Z,1.88
2023-05-10T08:27:45.176Z,1.80
2023-05-10T08:30:11.881Z,1.90
2023-05-10T08:32:38.843Z,2.28
2023-05-10T08:35:05.856Z,2.15
2023-05-10T08:37:33.179Z,2.10
2023-05-10T08:39:59.559Z,1.92
2023-05-10T08:42:29.591Z,1.63
2023-05-10T08:44:57.802Z,2.13
2023-05-10T08:47:24.403Z,1.90
2023-05-10T08:49:52.149Z,1.75
2023-05-10T08:52:19.102Z,1.75
2023-05-10T08:54:45.770Z,2.90
2023-05-10T08:57:12.185Z,1.75
2023-05-10T08:59:40.307Z,2.20
2023-05-10T09:02:08.782Z,1.52
2023-05-10T09:04:35.210Z,1.75
2023-05-10T09:07:02.215Z,1.95
2023-05-10T09:09:29.066Z,1.90
2023-05-10T09:11:55.750Z,1.63
2023-05-10T09:14:24.355Z,1.45
2023-05-10T09:16:50.751Z,1.77
2023-05-10T09:19:17.138Z,1.75
2023-05-10T09:21:44.068Z,1.20
2023-05-10T09:24:10.419Z,1.33
2023-05-10T09:26:47.499Z,1.55
2023-05-10T09:29:16.006Z,2.13
2023-05-10T09:31:48.327Z,1.35
2023-05-10T09:34:19.471Z,1.17
2023-05-10T09:36:57.781Z,1.00
2023-05-10T09:39:34.451Z,1.08
2023-05-10T09:42:04.681Z,1.25
2023-05-10T09:44:33.429Z,1.25
2023-05-10T09:47:00.713Z,2.33
2023-05-10T09:49:27.514Z,1.40
2023-05-10T09:52:05.427Z,1.25
2023-05-10T09:54:32.652Z,1.50
2023-05-10T09:56:59.093Z,1.42
2023-05-10T09:59:29.451Z,0.90
2023-05-10T10:02:00.448Z,0.50
2023-05-10T10:04:27.557Z,0.75
2023-05-10T10:07:05.110Z,0.88
2023-05-10T10:09:32.150Z,0.60
2023-05-10T10:11:58.689Z,0.85
2023-05-10T10:14:25.530Z,0.98
2023-05-10T10:17:06.808Z,1.00
2023-05-10T10:19:36.423Z,0.95
2023-05-10T10:22:06.923Z,0.95
2023-05-10T10:24:33.686Z,0.60
2023-05-10T10:27:09.962Z,0.80
2023-05-10T10:30:05.888Z,1.70
2023-05-10T10:32:57.312Z,0.90
2023-05-10T10:35:23.936Z,1.00
2023-05-10T10:37:51.882Z,1.20
2023-05-10T10:40:28.707Z,1.15
2023-05-10T10:42:56.317Z,0.38
2023-05-10T10:45:24.118Z,0.50
2023-05-10T10:48:14.807Z,0.50
2023-05-10T10:50:46.743Z,0.52
2023-05-10T10:53:13.916Z,0.55
2023-05-10T10:55:49.940Z,0.45
2023-05-10T10:58:36.734Z,0.52
2023-05-10T11:01:20.371Z,0.40
2023-05-10T11:04:20.101Z,0.52
2023-05-10T11:06:46.569Z,0.22
2023-05-10T11:09:13.360Z,0.40
2023-05-10T11:11:55.892Z,0.45
2023-05-10T11:14:23.475Z,0.50
2023-05-10T11:16:50.151Z,0.60
2023-05-10T11:19:17.925Z,1.02
2023-05-10T11:21:51.409Z,0.70
2023-05-10T11:24:20.322Z,0.75
2023-05-10T11:26:47.066Z,0.82
2023-05-10T11:29:14.680Z,0.60
2023-05-10T11:31:48.396Z,0.68
2023-05-10T11:34:31.049Z,0.80
2023-05-10T11:36:58.034Z,0.88
2023-05-10T11:39:29.518Z,0.60
2023-05-10T11:41:56.463Z,0.68
2023-05-10T11:44:23.050Z,0.70
2023-05-10T11:46:50.217Z,0.40
2023-05-10T11:49:16.625Z,0.50
2023-05-10T11:51:44.352Z,0.70
2023-05-10T11:54:12.150Z,0.52
2023-05-10T11:56:40.072Z,0.77
2023-05-10T11:59:06.848Z,0.70
2023-05-10T12:01:33.543Z,0.60
2023-05-10T12:04:01.104Z,0.75
2023-05-10T12:06:32.723Z,0.60
2023-05-10T12:09:00.012Z,0.70
2023-05-10T12:11:28.184Z,0.60
2023-05-10T12:13:55.608Z,0.60
2023-05-10T12:16:25.069Z,0.50
2023-05-10T12:18:53.037Z,0.75
2023-05-10T12:21:20.957Z,0.50
2023-05-10T12:23:49.463Z,0.40
2023-05-10T12:26:16.000Z,0.55
2023-05-10T12:28:42.663Z,0.50
2023-05-10T12:31:09.364Z,0.52
2023-05-10T12:33:44.902Z,0.63
2023-05-10T12:36:12.832Z,0.30
2023-05-10T12:38:49.801Z,0.50
2023-05-10T12:41:18.506Z,0.50
2023-05-10T12:43:46.302Z,0.60
2023-05-10T12:46:15.084Z,0.70
2023-05-10T12:48:42.931Z,0.80
2023-05-10T12:51:14.008Z,0.75
2023-05-10T12:53:42.573Z,0.88
2023-05-10T12:56:09.813Z,0.75
2023-05-10T12:58:36.441Z,0.50
2023-05-10T13:01:03.246Z,0.65
2023-05-10T13:03:29.837Z,0.60
2023-05-10T13:05:56.154Z,0.65
2023-05-10T13:08:22.604Z,0.45
2023-05-10T13:10:49.296Z,0.55
2023-05-10T13:13:16.235Z,0.60
2023-05-10T13:15:42.576Z,0.60
2023-05-10T13:18:09.177Z,0.40
2023-05-10T13:20:35.924Z,0.50
2023-05-10T13:23:03.348Z,0.60
2023-05-10T13:25:29.677Z,0.75
2023-05-10T13:27:56.095Z,1.17
2023-05-10T13:30:22.595Z,0.60
2023-05-10T13:32:49.007Z,0.70
2023-05-10T13:35:15.599Z,0.63
2023-05-10T13:37:42.092Z,0.70
2023-05-10T13:40:08.949Z,0.68
2023-05-10T13:42:35.375Z,1.08
2023-05-10T13:45:02.681Z,0.45
2023-05-10T13:47:29.272Z,0.68
2023-05-10T13:49:56.141Z,0.93
2023-05-10T13:52:22.621Z,0.43
2023-05-10T13:54:48.946Z,0.80
2023-05-10T13:57:17.525Z,0.63
2023-05-10T13:59:43.903Z,0.40
2023-05-10T14:02:11.532Z,0.73
2023-05-10T14:04:37.959Z,0.30
2023-05-10T14:07:04.294Z,0.70
2023-05-10T14:09:31.330Z,0.75
2023-05-10T14:11:58.201Z,0.55
2023-05-10T14:14:24.540Z,0.70
2023-05-10T14:16:50.935Z,0.63
2023-05-10T14:19:17.295Z,0.55
2023-05-10T14:21:44.173Z,0.55
2023-05-10T14:24:11.044Z,0.50
2023-05-10T14:26:37.430Z,0.50
2023-05-10T14:29:03.790Z,0.68
2023-05-10T14:31:31.185Z,1.25
2023-05-10T14:33:58.636Z,0.70
2023-05-10T14:36:25.129Z,0.50
2023-05-10T14:38:51.847Z,0.80
2023-05-10T14:41:18.669Z,1.38
2023-05-10T14:43:45.025Z,0.65
2023-05-10T14:46:11.488Z,0.55
2023-05-10T14:48:37.881Z,0.60
2023-05-10T14:51:04.599Z,0.60
2023-05-10T14:53:31.148Z,0.65
2023-05-10T14:55:58.123Z,0.82
2023-05-10T14:58:24.514Z,0.50
2023-05-10T15:00:50.888Z,1.38
2023-05-10T15:03:17.897Z,0.93
2023-05-10T15:05:44.932Z,0.75
2023-05-10T15:08:13.241Z,0.70
2023-05-10T15:10:40.394Z,0.77
2023-05-10T15:13:06.831Z,0.85
2023-05-10T15:15:33.387Z,0.60
2023-05-10T15:17:59.924Z,1.00
2023-05-10T15:20:26.702Z,0.75
2023-05-10T15:22:53.077Z,0.73
2023-05-10T15:25:20.915Z,1.48
2023-05-10T15:27:47.304Z,1.17
2023-05-10T15:30:13.886Z,0.95
2023-05-10T15:32:40.944Z,1.20
2023-05-10T15:35:09.095Z,0.93
2023-05-10T15:37:35.461Z,0.73
2023-05-10T15:40:04.796Z,0.98
2023-05-10T15:42:32.484Z,1.20
2023-05-10T15:44:59.166Z,0.95
2023-05-10T15:47:26.909Z,1.00
2023-05-10T15:49:53.369Z,1.30
2023-05-10T15:52:20.976Z,0.98
2023-05-10T15:54:47.407Z,0.82
2023-05-10T15:57:14.056Z,0.70
2023-05-10T15:59:40.497Z,0.90
2023-05-10T16:02:08.528Z,0.95
2023-05-10T16:04:34.921Z,1.05
2023-05-10T16:07:01.252Z,1.23
2023-05-10T16:09:27.572Z,1.02
2023-05-10T16:11:54.146Z,0.82
2023-05-10T16:14:22.796Z,1.83
2023-05-10T16:16:49.273Z,1.60
2023-05-10T16:19:15.864Z,1.17
2023-05-10T16:21:42.258Z,1.00
2023-05-10T16:24:08.582Z,0.85
2023-05-10T16:26:40.578Z,1.35
2023-05-10T16:29:09.873Z,1.73
2023-05-10T16:31:36.363Z,2.22
2023-05-10T16:34:03.098Z,5.40
2023-05-10T16:36:29.652Z,9.80
2023-05-10T16:38:56.400Z,3.95
2023-05-10T16:41:22.966Z,1.75
2023-05-10T16:43:49.563Z,1.15
2023-05-10T16:46:16.110Z,0.80
2023-05-10T16:48:42.644Z,1.52
2023-05-10T16:51:09.177Z,0.90
2023-05-10T16:53:36.157Z,0.88
2023-05-10T16:56:02.862Z,0.90
2023-05-10T16:58:29.261Z,0.60
2023-05-10T17:00:55.631Z,1.17
2023-05-10T17:03:22.176Z,1.40
2023-05-10T17:05:48.717Z,1.20
2023-05-10T17:08:15.127Z,1.33
2023-05-10T17:10:41.470Z,1.40
2023-05-10T17:13:09.833Z,1.23
2023-05-10T17:15:37.714Z,1.10
2023-05-10T17:18:04.632Z,1.08
2023-05-10T17:20:31.438Z,1.75
2023-05-10T17:22:57.999Z,1.10
2023-05-10T17:25:24.338Z,2.00
2023-05-10T17:27:55.089Z,1.42
2023-05-10T17:30:26.120Z,1.98
2023-05-10T17:32:54.037Z,1.92
2023-05-10T17:35:22.569Z,1.60
2023-05-10T17:37:49.125Z,1.80
2023-05-10T17:40:20.819Z,2.40
2023-05-10T17:42:47.191Z,1.75
2023-05-10T17:45:13.596Z,1.60
2023-05-10T17:47:40.258Z,1.20
2023-05-10T17:50:07.085Z,1.42
2023-05-10T17:52:33.712Z,1.45
2023-05-10T17:55:00.140Z,1.25
2023-05-10T17:57:26.467Z,1.20
2023-05-10T17:59:52.804Z,1.55
2023-05-10T18:02:19.191Z,1.00
2023-05-10T18:04:45.599Z,1.00
2023-05-10T18:07:12.055Z,0.80
2023-05-10T18:09:38.405Z,0.80
2023-05-10T18:12:05.030Z,0.88
2023-05-10T18:14:40.668Z,0.60
2023-05-10T18:17:09.274Z,0.60
2023-05-10T18:19:35.809Z,0.68
2023-05-10T18:22:02.493Z,0.70
2023-05-10T18:24:38.349Z,0.43
2023-05-10T18:27:05.869Z,1.08
2023-05-10T18:29:32.554Z,0.60
2023-05-10T18:31:58.941Z,4.15
2023-05-10T18:34:25.306Z,10.23
2023-05-10T18:36:52.299Z,4.45
2023-05-10T18:39:18.825Z,1.52
2023-05-10T18:41:45.661Z,1.02
2023-05-10T18:44:12.210Z,0.82
2023-05-10T18:46:38.999Z,0.90
2023-05-10T18:49:06.353Z,1.25
2023-05-10T18:51:32.752Z,0.88
2023-05-10T18:53:59.093Z,0.95
2023-05-10T18:56:25.472Z,0.60
2023-05-10T18:58:52.221Z,0.80
2023-05-10T19:01:18.578Z,0.70
2023-05-10T19:03:44.926Z,0.80
2023-05-10T19:06:11.421Z,0.70
2023-05-10T19:08:37.763Z,0.60
2023-05-10T19:11:04.107Z,0.70
2023-05-10T19:13:30.435Z,0.60
2023-05-10T19:16:05.543Z,0.70
2023-05-10T19:18:33.145Z,0.82
2023-05-10T19:21:02.353Z,0.80
2023-05-10T19:23:28.759Z,1.45
2023-05-10T19:25:55.085Z,0.95
2023-05-10T19:28:21.546Z,0.80
2023-05-10T19:30:49.512Z,0.90
2023-05-10T19:33:18.217Z,1.15
2023-05-10T19:35:45.009Z,0.90
2023-05-10T19:38:11.531Z,1.30
2023-05-10T19:40:37.962Z,1.33
2023-05-10T19:43:04.317Z,1.50
2023-05-10T19:45:30.633Z,1.00
2023-05-10T19:47:57.434Z,1.40
2023-05-10T19:50:23.837Z,1.02
2023-05-10T19:52:50.529Z,1.20
2023-05-10T19:55:29.875Z,0.95
2023-05-10T19:57:56.645Z,1.00
2023-05-10T20:00:24.103Z,1.13
2023-05-10T20:02:50.847Z,1.05
2023-05-10T20:05:17.384Z,1.30
2023-05-10T20:07:44.091Z,0.95
2023-05-10T20:10:11.057Z,1.10
2023-05-10T20:12:37.417Z,1.15
2023-05-10T20:15:06.261Z,1.23
2023-05-10T20:17:32.990Z,1.25
2023-05-10T20:19:59.590Z,1.10
2023-05-10T20:22:26.273Z,0.98
2023-05-10T20:24:55.128Z,1.20
2023-05-10T20:27:22.383Z,1.40
2023-05-10T20:29:48.715Z,1.30
2023-05-10T20:32:15.065Z,1.42
2023-05-10T20:34:41.533Z,1.48
2023-05-10T20:37:08.140Z,1.30
2023-05-10T20:39:34.500Z,1.55
2023-05-10T20:42:01.099Z,1.58
2023-05-10T20:44:27.456Z,1.42
2023-05-10T20:46:54.077Z,1.65
2023-05-10T20:49:20.431Z,1.45
2023-05-10T20:51:46.850Z,1.75
2023-05-10T20:54:13.198Z,1.30
2023-05-10T20:56:39.923Z,1.50
2023-05-10T20:59:06.303Z,1.10
2023-05-10T21:01:32.706Z,1.20
2023-05-10T21:03:59.082Z,1.17
2023-05-10T21:06:25.747Z,0.88
2023-05-10T21:08:52.294Z,1.13
2023-05-10T21:11:18.765Z,1.00
2023-05-10T21:13:45.304Z,1.10
2023-05-10T21:16:11.678Z,1.20
2023-05-10T21:18:38.195Z,0.90
2023-05-10T21:21:04.593Z,1.25
2023-05-10T21:23:33.097Z,1.00
2023-05-10T21:26:03.186Z,0.90
2023-05-10T21:28:29.557Z,1.10
2023-05-10T21:30:55.927Z,1.15
2023-05-10T21:33:22.829Z,1.33
2023-05-10T21:35:49.392Z,1.25
2023-05-10T21:38:15.823Z,1.67
2023-05-10T21:40:42.400Z,1.08
2023-05-10T21:43:09.536Z,1.13
2023-05-10T21:45:36.343Z,1.00
2023-05-10T21:48:03.640Z,1.00
2023-05-10T21:50:30.057Z,1.45
2023-05-10T21:52:56.610Z,0.95
2023-05-10T21:55:23.174Z,1.35
2023-05-10T21:57:50.275Z,1.27
2023-05-10T22:00:18.955Z,1.27
2023-05-10T22:02:46.436Z,1.50
2023-05-10T22:05:13.040Z,1.40
2023-05-10T22:07:39.396Z,1.52
2023-05-10T22:10:07.072Z,1.45
2023-05-10T22:12:33.421Z,1.63
2023-05-10T22:17:33.353Z,1.88
2023-05-10T22:19:59.750Z,1.55
2023-05-10T22:22:26.096Z,1.30
2023-05-10T22:24:52.475Z,0.93
2023-05-10T22:27:18.835Z,1.20
2023-05-10T22:29:46.390Z,1.65
2023-05-10T22:32:12.770Z,1.48
2023-05-10T22:34:39.103Z,1.38
2023-05-10T22:37:05.575Z,1.13
2023-05-10T22:39:31.957Z,1.50
2023-05-10T22:41:58.303Z,1.10
2023-05-10T22:44:24.688Z,1.10
2023-05-10T22:46:51.735Z,1.30
2023-05-10T22:49:18.175Z,1.60
2023-05-10T22:51:44.526Z,1.50
2023-05-10T22:54:10.997Z,1.25
2023-05-10T22:56:37.411Z,1.42
2023-05-10T22:59:03.836Z,1.58
2023-05-10T23:01:30.248Z,1.88
2023-05-10T23:03:56.754Z,1.50
2023-05-10T23:06:23.097Z,2.03
2023-05-10T23:08:49.769Z,1.20
2023-05-10T23:11:16.306Z,1.20
2023-05-10T23:13:42.678Z,1.88
2023-05-10T23:16:09.232Z,1.52
2023-05-10T23:18:35.616Z,1.45
2023-05-10T23:21:02.201Z,1.30
2023-05-10T23:23:28.602Z,1.40
2023-05-10T23:25:54.977Z,1.00
2023-05-10T23:28:21.313Z,1.10
2023-05-10T23:30:47.677Z,0.93
2023-05-10T23:33:14.165Z,1.30
2023-05-10T23:35:40.513Z,1.17
2023-05-10T23:38:06.850Z,1.23
2023-05-10T23:40:35.410Z,1.10
2023-05-10T23:43:01.765Z,1.20
2023-05-10T23:45:28.141Z,0.95
2023-05-10T23:47:54.507Z,1.00
2023-05-10T23:50:21.357Z,0.90
2023-05-10T23:52:48.145Z,1.08
2023-05-10T23:55:14.607Z,0.93
2023-05-10T23:57:40.962Z,1.33
